createdAt,value
2022-09-12T00:00:41.561Z,95497.53
2022-09-12T00:03:27.450Z,95492.00
2022-09-12T00:06:22.875Z,95494.00
2022-09-12T00:09:14.587Z,95499.88
2022-09-12T00:12:00.779Z,95498.34
2022-09-12T00:14:46.719Z,95486.69
2022-09-12T00:17:35.230Z,95488.00
2022-09-12T00:20:21.235Z,95491.75
2022-09-12T00:23:07.073Z,95498.56
2022-09-12T00:25:53.218Z,95510.81
2022-09-12T00:28:40.653Z,95488.44
2022-09-12T00:31:27.284Z,95492.47
2022-09-12T00:34:13.800Z,95509.03
2022-09-12T00:36:59.769Z,95507.38
2022-09-12T00:39:45.719Z,95505.50
2022-09-12T00:42:31.612Z,95512.22
2022-09-12T00:45:30.588Z,95508.31
2022-09-12T00:48:21.774Z,95520.34
2022-09-12T00:51:08.637Z,95515.13
2022-09-12T00:53:55.784Z,95508.31
2022-09-12T00:56:43.765Z,95510.22
2022-09-12T00:59:49.843Z,95516.44
2022-09-12T01:02:36.136Z,95498.91
2022-09-12T01:05:23.675Z,95503.25
2022-09-12T01:08:09.651Z,95513.13
2022-09-12T01:10:56.804Z,95510.66
2022-09-12T01:13:44.301Z,95494.19
2022-09-12T01:16:30.235Z,95515.25
2022-09-12T01:19:46.632Z,95498.63
2022-09-12T01:22:44.776Z,95495.44
2022-09-12T01:25:30.945Z,95515.13
2022-09-12T01:28:35.752Z,95503.78
2022-09-12T01:31:47.636Z,95501.31
2022-09-12T01:34:33.392Z,95498.53
2022-09-12T01:37:28.573Z,95497.91
2022-09-12T01:40:43.995Z,95492.59
2022-09-12T01:43:36.769Z,95491.31
2022-09-12T01:46:45.493Z,95495.41
2022-09-12T01:49:52.921Z,95486.72
2022-09-12T01:52:55.566Z,95487.75
2022-09-12T01:55:49.981Z,95479.75
2022-09-12T01:58:43.770Z,95451.22
2022-09-12T02:01:34.684Z,95485.16
2022-09-12T02:04:24.509Z,95460.19
2022-09-12T02:07:18.632Z,95456.91
2022-09-12T02:10:13.068Z,95469.88
2022-09-12T02:13:04.244Z,95470.06
2022-09-12T02:15:54.721Z,95459.75
2022-09-12T02:18:45.826Z,95458.31
2022-09-12T02:21:33.108Z,95471.25
2022-09-12T02:24:21.316Z,95475.59
2022-09-12T02:27:15.293Z,95486.50
2022-09-12T02:30:01.627Z,95475.66
2022-09-12T02:33:06.561Z,95491.72
2022-09-12T02:36:26.920Z,95490.25
2022-09-12T02:39:13.009Z,95484.09
2022-09-12T02:42:01.027Z,95498.75
2022-09-12T02:44:46.927Z,95491.88
2022-09-12T02:47:38.068Z,95464.91
2022-09-12T02:50:24.472Z,95486.47
2022-09-12T02:53:11.333Z,95490.38
2022-09-12T02:55:57.480Z,95469.06
2022-09-12T02:58:44.058Z,95477.78
2022-09-12T03:01:42.395Z,95484.84
2022-09-12T03:05:16.076Z,95493.41
2022-09-12T03:08:10.732Z,95491.31
2022-09-12T03:11:15.989Z,95494.31
2022-09-12T03:14:49.866Z,95488.22
2022-09-12T03:17:52.450Z,95491.69
2022-09-12T03:20:38.302Z,95493.78
2022-09-12T03:23:25.653Z,95488.59
2022-09-12T03:26:26.669Z,95469.63
2022-09-12T03:29:13.517Z,95485.44
2022-09-12T03:31:59.551Z,95498.88
2022-09-12T03:34:45.704Z,95478.53
2022-09-12T03:37:31.892Z,95496.56
2022-09-12T03:40:18.282Z,95498.66
2022-09-12T03:43:05.781Z,95479.00
2022-09-12T03:45:53.487Z,95506.56
2022-09-12T03:48:40.676Z,95507.81
2022-09-12T03:51:26.587Z,95487.41
2022-09-12T03:54:12.587Z,95497.44
2022-09-12T03:56:58.546Z,95502.28
2022-09-12T03:59:44.597Z,95474.50
2022-09-12T04:02:30.696Z,95503.72
2022-09-12T04:05:16.556Z,95494.16
2022-09-12T04:08:02.792Z,95513.22
2022-09-12T04:10:48.993Z,95508.88
2022-09-12T04:13:35.541Z,95511.44
2022-09-12T04:16:21.814Z,95505.75
2022-09-12T04:19:07.891Z,95506.09
2022-09-12T04:21:53.814Z,95505.09
2022-09-12T04:24:39.692Z,95509.16
2022-09-12T04:27:25.562Z,95491.59
2022-09-12T04:30:11.930Z,95514.94
2022-09-12T04:32:57.914Z,95515.34
2022-09-12T04:35:45.361Z,95519.16
2022-09-12T04:38:31.660Z,95510.13
2022-09-12T04:41:22.183Z,95501.31
2022-09-12T04:44:11.706Z,95522.38
2022-09-12T04:46:57.787Z,95536.31
2022-09-12T04:49:43.793Z,95531.97
2022-09-12T04:52:29.847Z,95543.38
2022-09-12T04:55:15.885Z,95535.69
2022-09-12T04:58:02.480Z,95549.53
2022-09-12T05:00:49.030Z,95535.47
2022-09-12T05:03:35.188Z,95545.19
2022-09-12T05:06:26.684Z,95558.59
2022-09-12T05:09:14.203Z,95557.34
2022-09-12T05:12:05.255Z,95550.88
2022-09-12T05:14:51.917Z,95556.28
2022-09-12T05:17:38.064Z,95556.16
2022-09-12T05:20:24.030Z,95564.53
2022-09-12T05:23:09.877Z,95556.53
2022-09-12T05:25:57.988Z,95564.31
2022-09-12T05:28:44.318Z,95549.09
2022-09-12T05:31:30.068Z,95567.69
2022-09-12T05:34:15.979Z,95550.75
2022-09-12T05:37:02.001Z,95538.72
2022-09-12T05:39:48.483Z,95555.38
2022-09-12T05:42:34.358Z,95562.38
2022-09-12T05:45:21.214Z,95572.66
2022-09-12T05:48:07.156Z,95560.06
2022-09-12T05:50:53.029Z,95556.88
2022-09-12T05:53:40.326Z,95559.72
2022-09-12T05:56:28.293Z,95557.78
2022-09-12T05:59:20.049Z,95551.41
2022-09-12T06:02:06.483Z,95561.81
2022-09-12T06:04:52.354Z,95563.72
2022-09-12T06:07:38.409Z,95558.88
2022-09-12T06:10:26.354Z,95565.03
2022-09-12T06:13:12.834Z,95559.97
2022-09-12T06:16:16.790Z,95566.69
2022-09-12T06:19:06.990Z,95565.53
2022-09-12T06:21:53.429Z,95571.56
2022-09-12T06:24:39.707Z,95548.16
2022-09-12T06:27:25.469Z,95568.53
2022-09-12T06:30:12.398Z,95559.13
2022-09-12T06:32:58.141Z,95563.03
2022-09-12T06:35:44.182Z,95572.72
2022-09-12T06:38:31.289Z,95538.66
2022-09-12T06:41:17.385Z,95552.72
2022-09-12T06:44:04.058Z,95556.28
2022-09-12T06:46:50.294Z,95553.88
2022-09-12T06:49:36.450Z,95558.47
2022-09-12T06:52:23.031Z,95556.84
2022-09-12T06:55:09.320Z,95549.66
2022-09-12T06:57:55.623Z,95534.16
2022-09-12T07:00:42.086Z,95559.47
2022-09-12T07:03:28.247Z,95563.09
2022-09-12T07:06:17.397Z,95557.34
2022-09-12T07:09:05.096Z,95559.09
2022-09-12T07:11:51.158Z,95569.81
2022-09-12T07:14:37.093Z,95569.00
2022-09-12T07:17:22.979Z,95569.34
2022-09-12T07:20:08.985Z,95568.44
2022-09-12T07:23:00.093Z,95560.88
2022-09-12T07:25:53.666Z,95571.97
2022-09-12T07:28:40.127Z,95573.81
2022-09-12T07:31:27.801Z,95574.78
2022-09-12T07:34:14.022Z,95569.72
2022-09-12T07:37:00.556Z,95575.50
2022-09-12T07:39:46.625Z,95568.19
2022-09-12T07:42:32.599Z,95578.53
2022-09-12T07:45:18.482Z,95577.22
2022-09-12T07:48:04.824Z,95571.69
2022-09-12T07:51:01.612Z,95566.81
2022-09-12T07:53:49.034Z,95569.53
2022-09-12T07:56:38.855Z,95579.19
2022-09-12T07:59:48.889Z,95564.47
2022-09-12T08:02:31.877Z,95549.28
2022-09-12T08:05:17.790Z,95557.50
2022-09-12T08:08:03.946Z,95574.69
2022-09-12T08:10:49.712Z,95562.66
2022-09-12T08:13:37.398Z,95569.47
2022-09-12T08:16:29.601Z,95551.06
2022-09-12T08:19:15.634Z,95555.25
2022-09-12T08:22:01.419Z,95567.56
2022-09-12T08:24:47.176Z,95574.38
2022-09-12T08:27:33.092Z,95576.88
2022-09-12T08:30:18.917Z,95573.81
2022-09-12T08:33:05.003Z,95563.44
2022-09-12T08:35:50.901Z,95554.75
2022-09-12T08:38:38.365Z,95569.03
2022-09-12T08:41:39.130Z,95573.66
2022-09-12T08:44:24.981Z,95552.41
2022-09-12T08:47:19.978Z,95558.84
2022-09-12T08:50:15.336Z,95568.56
2022-09-12T08:53:17.296Z,95537.03
2022-09-12T08:56:04.833Z,95561.16
2022-09-12T08:58:51.093Z,95560.34
2022-09-12T09:01:45.510Z,95550.22
2022-09-12T09:04:56.800Z,95560.44
2022-09-12T09:08:14.364Z,95552.97
2022-09-12T09:11:14.270Z,95526.78
2022-09-12T09:14:30.472Z,95549.66
2022-09-12T09:17:35.362Z,95557.41
2022-09-12T09:20:48.208Z,95544.41
2022-09-12T09:23:45.028Z,95530.66
2022-09-12T09:26:48.544Z,95542.84
2022-09-12T09:29:41.356Z,95543.38
2022-09-12T09:32:36.245Z,95542.63
2022-09-12T09:35:44.914Z,95544.16
2022-09-12T09:38:54.306Z,95535.31
2022-09-12T09:42:10.270Z,95535.31
2022-09-12T09:44:58.790Z,95514.03
2022-09-12T09:47:58.177Z,95518.75
2022-09-12T09:50:45.463Z,95533.16
2022-09-12T09:54:10.364Z,95540.81
2022-09-12T09:56:56.333Z,95528.69
2022-09-12T09:59:42.275Z,95526.72
2022-09-12T10:02:28.279Z,95527.38
2022-09-12T10:05:17.341Z,95526.97
2022-09-12T10:08:04.674Z,95525.00
2022-09-12T10:11:23.013Z,95506.66
2022-09-12T10:14:37.163Z,95524.31
2022-09-12T10:17:34.182Z,95512.00
2022-09-12T10:20:34.483Z,95522.47
2022-09-12T10:23:37.292Z,95511.78
2022-09-12T10:26:23.333Z,95510.53
2022-09-12T10:29:17.230Z,95518.94
2022-09-12T10:32:05.775Z,95511.34
2022-09-12T10:34:55.308Z,95516.22
2022-09-12T10:37:41.855Z,95514.19
2022-09-12T10:40:32.677Z,95506.81
2022-09-12T10:43:27.517Z,95503.84
2022-09-12T10:46:16.664Z,95524.41
2022-09-12T10:49:14.905Z,95515.16
2022-09-12T10:52:17.552Z,95516.38
2022-09-12T10:55:03.609Z,95512.03
2022-09-12T10:58:12.311Z,95505.72
2022-09-12T11:01:12.282Z,95516.91
2022-09-12T11:04:35.440Z,95517.38
2022-09-12T11:07:39.504Z,95537.31
2022-09-12T11:10:31.954Z,95513.19
2022-09-12T11:13:38.940Z,95512.25
2022-09-12T11:16:42.995Z,95510.78
2022-09-12T11:19:44.311Z,95517.56
2022-09-12T11:22:49.089Z,95514.53
2022-09-12T11:25:44.574Z,95515.94
2022-09-12T11:28:45.330Z,95510.16
2022-09-12T11:31:42.045Z,95526.25
2022-09-12T11:35:03.006Z,95515.47
2022-09-12T11:38:04.978Z,95527.63
2022-09-12T11:41:00.478Z,95524.53
2022-09-12T11:44:05.170Z,95526.47
2022-09-12T11:46:52.211Z,95520.94
2022-09-12T11:49:44.294Z,95516.09
2022-09-12T11:52:35.736Z,95512.25
2022-09-12T11:55:30.284Z,95496.03
2022-09-12T12:03:07.582Z,95511.28
2022-09-12T12:06:21.513Z,95508.97
2022-09-12T12:09:07.639Z,95520.00
2022-09-12T12:11:57.833Z,95505.22
2022-09-12T12:14:47.054Z,95503.66
2022-09-12T12:17:33.580Z,95507.72
2022-09-12T12:20:19.801Z,95505.03
2022-09-12T12:23:06.047Z,95497.94
2022-09-12T12:25:57.371Z,95499.38
2022-09-12T12:28:49.553Z,95494.97
2022-09-12T12:32:10.445Z,95482.75
2022-09-12T12:35:02.509Z,95484.72
2022-09-12T12:37:52.080Z,95484.53
2022-09-12T12:40:38.219Z,95476.34
2022-09-12T12:43:32.254Z,95476.44
2022-09-12T12:46:20.489Z,95474.25
2022-09-12T12:49:30.152Z,95472.31
2022-09-12T12:52:17.544Z,95468.31
2022-09-12T12:55:05.224Z,95454.66
2022-09-12T12:57:52.337Z,95466.88
2022-09-12T13:00:40.173Z,95448.38
2022-09-12T13:03:31.089Z,95462.09
2022-09-12T13:06:36.207Z,95454.66
2022-09-12T13:09:48.165Z,95448.06
2022-09-12T13:12:36.777Z,95452.56
2022-09-12T13:15:42.894Z,95461.16
2022-09-12T13:18:49.288Z,95453.59
2022-09-12T13:21:35.535Z,95448.25
2022-09-12T13:24:22.961Z,95440.38
2022-09-12T13:27:24.844Z,95447.47
2022-09-12T13:30:15.577Z,95434.63
2022-09-12T13:33:48.710Z,95430.25
2022-09-12T13:37:07.989Z,95443.66
2022-09-12T13:40:33.469Z,95433.81
2022-09-12T13:43:27.224Z,95433.91
2022-09-12T13:46:17.683Z,95436.41
2022-09-12T13:49:19.078Z,95423.66
2022-09-12T13:52:08.846Z,95424.81
2022-09-12T13:54:56.939Z,95403.28
2022-09-12T13:57:43.161Z,95418.91
2022-09-12T14:00:32.224Z,95415.97
2022-09-12T14:04:10.117Z,95423.34
2022-09-12T14:06:57.026Z,95417.06
2022-09-12T14:09:45.191Z,95416.53
2022-09-12T14:12:42.750Z,95419.53
2022-09-12T14:15:33.712Z,95426.34
2022-09-12T14:18:26.300Z,95403.41
2022-09-12T14:21:27.220Z,95411.88
2022-09-12T14:24:14.848Z,95409.97
2022-09-12T14:27:01.192Z,95422.25
2022-09-12T14:29:47.519Z,95427.16
2022-09-12T14:32:33.596Z,95421.41
2022-09-12T14:35:20.417Z,95415.13
2022-09-12T14:38:08.763Z,95431.25
2022-09-12T14:41:03.061Z,95419.22
2022-09-12T14:43:52.980Z,95417.81
2022-09-12T14:46:40.248Z,95403.03
2022-09-12T14:49:35.256Z,95409.84
2022-09-12T14:52:30.157Z,95411.47
2022-09-12T14:55:16.257Z,95393.66
2022-09-12T14:58:15.600Z,95407.28
2022-09-12T15:01:22.970Z,95414.13
2022-09-12T15:04:08.803Z,95411.56
2022-09-12T15:06:54.687Z,95408.25
2022-09-12T15:09:45.595Z,95405.50
2022-09-12T15:12:32.977Z,95409.75
2022-09-12T15:15:20.954Z,95407.81
2022-09-12T15:18:07.385Z,95413.09
2022-09-12T15:20:58.804Z,95418.25
2022-09-12T15:23:49.994Z,95395.31
2022-09-12T15:26:36.503Z,95402.09
2022-09-12T15:29:22.437Z,95403.69
2022-09-12T15:32:15.090Z,95386.19
2022-09-12T15:35:00.937Z,95406.69
2022-09-12T15:37:47.330Z,95406.97
2022-09-12T15:40:33.477Z,95398.44
2022-09-12T15:43:20.897Z,95406.06
2022-09-12T15:46:07.221Z,95409.88
2022-09-12T15:48:53.281Z,95409.41
2022-09-12T15:51:40.070Z,95404.81
2022-09-12T15:54:26.713Z,95405.91
2022-09-12T15:57:12.514Z,95408.22
2022-09-12T15:59:58.624Z,95397.88
2022-09-12T16:02:46.279Z,95416.50
2022-09-12T16:05:33.385Z,95417.88
2022-09-12T16:08:19.563Z,95419.53
2022-09-12T16:11:08.776Z,95416.53
2022-09-12T16:13:56.775Z,95410.50
2022-09-12T16:16:43.505Z,95423.84
2022-09-12T16:19:29.413Z,95418.09
2022-09-12T16:22:15.288Z,95417.00
2022-09-12T16:25:01.332Z,95412.03
2022-09-12T16:27:47.205Z,95434.44
2022-09-12T16:30:34.023Z,95427.88
2022-09-12T16:33:20.019Z,95431.41
2022-09-12T16:36:08.619Z,95423.44
2022-09-12T16:38:54.614Z,95428.88
2022-09-12T16:41:42.763Z,95431.03
2022-09-12T16:44:28.901Z,95437.25
2022-09-12T16:47:15.278Z,95439.94
2022-09-12T16:50:01.266Z,95434.72
2022-09-12T16:52:47.089Z,95431.41
2022-09-12T16:55:33.006Z,95431.09
2022-09-12T16:58:19.040Z,95427.53
2022-09-12T17:01:19.672Z,95434.56
2022-09-12T17:04:06.838Z,95429.06
2022-09-12T17:06:52.774Z,95436.69
2022-09-12T17:09:38.731Z,95440.47
2022-09-12T17:12:24.739Z,95441.50
2022-09-12T17:15:10.797Z,95432.72
2022-09-12T17:17:57.228Z,95442.47
2022-09-12T17:20:43.333Z,95450.59
2022-09-12T17:23:29.868Z,95450.28
2022-09-12T17:26:15.856Z,95446.69
2022-09-12T17:29:02.261Z,95458.63
2022-09-12T17:31:48.912Z,95460.25
2022-09-12T17:34:34.848Z,95453.41
2022-09-12T17:37:21.832Z,95439.63
2022-09-12T17:40:09.574Z,95460.63
2022-09-12T17:42:56.656Z,95458.41
2022-09-12T17:45:42.991Z,95473.06
2022-09-12T17:48:29.222Z,95472.13
2022-09-12T17:51:15.286Z,95464.19
2022-09-12T17:54:04.741Z,95477.47
2022-09-12T17:56:51.950Z,95478.22
2022-09-12T17:59:37.825Z,95482.19
2022-09-12T18:02:23.928Z,95488.72
2022-09-12T18:05:10.255Z,95498.22
2022-09-12T18:07:56.311Z,95487.50
2022-09-12T18:10:42.311Z,95471.34
2022-09-12T18:13:28.318Z,95498.03
2022-09-12T18:16:14.663Z,95508.00
2022-09-12T18:19:01.497Z,95501.41
2022-09-12T18:21:47.528Z,95498.91
2022-09-12T18:24:33.922Z,95507.25
2022-09-12T18:27:20.022Z,95507.41
2022-09-12T18:30:22.238Z,95518.00
2022-09-12T18:33:08.425Z,95504.16
2022-09-12T18:35:54.540Z,95509.38
2022-09-12T18:38:41.466Z,95504.34
2022-09-12T18:41:28.997Z,95508.53
2022-09-12T18:44:15.304Z,95515.53
2022-09-12T18:47:02.294Z,95513.22
2022-09-12T18:49:48.596Z,95515.28
2022-09-12T18:52:34.553Z,95498.44
2022-09-12T18:55:20.928Z,95503.25
2022-09-12T18:58:06.756Z,95516.28
2022-09-12T19:00:52.697Z,95517.00
2022-09-12T19:03:38.604Z,95515.75
2022-09-12T19:06:26.844Z,95523.34
2022-09-12T19:09:15.296Z,95525.88
2022-09-12T19:12:01.586Z,95519.50
2022-09-12T19:14:47.814Z,95525.31
2022-09-12T19:17:33.733Z,95514.50
2022-09-12T19:20:19.552Z,95520.47
2022-09-12T19:23:05.528Z,95520.63
2022-09-12T19:25:59.096Z,95532.50
2022-09-12T19:28:45.477Z,95531.13
2022-09-12T19:31:32.155Z,95532.09
2022-09-12T19:34:18.392Z,95528.09
2022-09-12T19:37:04.577Z,95532.00
2022-09-12T19:39:50.593Z,95526.00
2022-09-12T19:42:36.383Z,95538.03
2022-09-12T19:45:22.133Z,95536.38
2022-09-12T19:48:08.239Z,95537.56
2022-09-12T19:51:01.579Z,95538.28
2022-09-12T19:53:48.566Z,95524.84
2022-09-12T19:56:34.385Z,95541.09
2022-09-12T19:59:20.405Z,95537.78
2022-09-12T20:02:06.629Z,95534.38
2022-09-12T20:04:52.395Z,95544.03
2022-09-12T20:07:38.450Z,95537.94
2022-09-12T20:10:24.587Z,95539.91
2022-09-12T20:13:10.665Z,95552.63
2022-09-12T20:15:56.684Z,95546.97
2022-09-12T20:18:43.636Z,95537.56
2022-09-12T20:21:38.612Z,95543.66
2022-09-12T20:24:32.926Z,95541.78
2022-09-12T20:27:19.616Z,95549.53
2022-09-12T20:30:06.104Z,95546.91
2022-09-12T20:32:51.980Z,95548.47
2022-09-12T20:35:38.014Z,95553.88
2022-09-12T20:38:24.210Z,95539.84
2022-09-12T20:41:11.625Z,95549.22
2022-09-12T20:43:57.884Z,95557.97
2022-09-12T20:46:43.925Z,95556.25
2022-09-12T20:49:30.167Z,95553.69
2022-09-12T20:52:16.070Z,95566.97
2022-09-12T20:55:02.086Z,95562.03
2022-09-12T20:57:50.117Z,95554.22
2022-09-12T21:00:38.462Z,95557.75
2022-09-12T21:03:25.548Z,95562.34
2022-09-12T21:06:17.011Z,95547.72
2022-09-12T21:09:03.046Z,95564.53
2022-09-12T21:11:49.356Z,95557.09
2022-09-12T21:14:35.109Z,95570.88
2022-09-12T21:17:21.204Z,95571.09
2022-09-12T21:20:11.256Z,95567.41
2022-09-12T21:22:57.757Z,95558.09
2022-09-12T21:25:52.060Z,95565.25
2022-09-12T21:28:38.529Z,95561.97
2022-09-12T21:31:25.650Z,95570.06
2022-09-12T21:34:12.114Z,95579.09
2022-09-12T21:36:58.401Z,95566.47
2022-09-12T21:39:44.825Z,95586.22
2022-09-12T21:42:31.780Z,95572.78
2022-09-12T21:45:18.460Z,95571.59
2022-09-12T21:48:04.948Z,95567.81
2022-09-12T21:50:51.527Z,95560.06
2022-09-12T21:53:37.741Z,95567.69
2022-09-12T21:56:23.961Z,95565.47
2022-09-12T21:59:09.872Z,95569.81
2022-09-12T22:01:55.893Z,95558.47
2022-09-12T22:04:41.921Z,95577.53
2022-09-12T22:07:28.368Z,95569.28
2022-09-12T22:10:15.289Z,95550.31
2022-09-12T22:13:01.764Z,95571.59
2022-09-12T22:15:51.990Z,95570.38
2022-09-12T22:18:38.548Z,95571.00
2022-09-12T22:21:24.843Z,95554.66
2022-09-12T22:24:29.154Z,95557.94
2022-09-12T22:27:15.297Z,95557.19
2022-09-12T22:30:01.477Z,95563.19
2022-09-12T22:32:49.830Z,95564.69
2022-09-12T22:35:36.293Z,95561.97
2022-09-12T22:38:22.310Z,95560.16
2022-09-12T22:41:11.177Z,95567.00
2022-09-12T22:43:58.173Z,95560.81
2022-09-12T22:46:45.082Z,95569.38
2022-09-12T22:49:31.211Z,95546.63
2022-09-12T22:52:17.184Z,95546.47
2022-09-12T22:55:03.481Z,95544.84
2022-09-12T22:57:49.776Z,95559.31
2022-09-12T23:00:35.670Z,95548.13
2022-09-12T23:03:21.708Z,95560.78
2022-09-12T23:06:08.136Z,95552.09
2022-09-12T23:08:54.419Z,95547.78
2022-09-12T23:11:40.771Z,95533.72
2022-09-12T23:14:26.485Z,95538.22
2022-09-12T23:17:13.029Z,95542.19
2022-09-12T23:19:59.150Z,95545.72
2022-09-12T23:22:44.994Z,95545.72
2022-09-12T23:25:31.019Z,95531.69
2022-09-12T23:28:16.547Z,95527.50
2022-09-12T23:31:03.069Z,95531.22
2022-09-12T23:33:50.086Z,95508.56
2022-09-12T23:36:36.416Z,95521.56
2022-09-12T23:39:23.442Z,95519.91
2022-09-12T23:42:09.341Z,95525.31
2022-09-12T23:44:55.272Z,95524.94
2022-09-12T23:47:41.503Z,95525.13
2022-09-12T23:50:27.873Z,95523.94
2022-09-12T23:53:15.022Z,95503.88
2022-09-12T23:56:01.754Z,95497.06
2022-09-12T23:58:48.314Z,95520.69
